Time,TemperatureF,DewpointF,PressureIn,WindDirection,WindDirectionDegrees,WindSpeedMPH,WindSpeedGustMPH,Humidity,HourlyPrecipIn,Conditions,Clouds,dailyrainin,SolarRadiationWatts/m^2,SoftwareType,DateUTC
2013-06-27 00:22:00,56.0,50.0,-100.00,SSE,148,4.0,7.0,80,-99.99,,,-99.99,0.000000,,2013-06-27 07:22:00,
2013-06-27 00:30:00,55.0,49.0,-100.00,SSE,150,4.0,6.0,80,-99.99,,,-99.99,0.000000,,2013-06-27 07:30:00,
2013-06-27 01:22:00,55.0,49.0,-100.00,SSE,150,4.0,6.0,80,-99.99,,,-99.99,0.000000,,2013-06-27 08:22:00,
2013-06-27 01:30:00,56.0,49.0,-100.00,SE,141,4.0,9.0,78,-99.99,,,-99.99,0.000000,,2013-06-27 08:30:00,
2013-06-27 02:30:00,56.0,47.0,-100.00,SE,139,4.0,8.0,72,-99.99,,,-99.99,0.000000,,2013-06-27 09:30:00,
2013-06-27 03:30:00,56.0,45.0,-100.00,SE,146,3.0,5.0,66,-99.99,,,-99.99,0.000000,,2013-06-27 10:30:00,
2013-06-27 04:21:00,56.0,45.0,-100.00,SE,146,3.0,5.0,66,-99.99,,,-99.99,0.000000,,2013-06-27 11:21:00,
2013-06-27 04:30:00,56.0,44.0,-100.00,SSE,147,3.0,7.0,65,-99.99,,,-99.99,0.000000,,2013-06-27 11:30:00,
2013-06-27 05:22:00,56.0,44.0,-100.00,SSE,147,3.0,7.0,65,-99.99,,,-99.99,0.000000,,2013-06-27 12:22:00,
2013-06-27 05:30:00,56.0,43.0,-100.00,SE,144,2.0,5.0,63,-99.99,,,-99.99,1.000000,,2013-06-27 12:30:00,
2013-06-27 06:30:00,58.0,38.0,-100.00,SE,137,3.0,8.0,48,-99.99,,,-99.99,22.000000,,2013-06-27 13:30:00,
2013-06-27 07:22:00,58.0,38.0,-100.00,SE,137,3.0,8.0,48,-99.99,,,-99.99,22.000000,,2013-06-27 14:22:00,
2013-06-27 11:30:00,68.0,44.0,-100.00,SW,216,2.0,6.0,42,-99.99,,,-99.99,717.000000,,2013-06-27 18:30:00,
2013-06-27 12:30:00,69.0,48.0,-100.00,SSW,202,3.0,6.0,48,-99.99,,,-99.99,762.000000,,2013-06-27 19:30:00,
2013-06-27 13:22:00,69.0,48.0,-100.00,SSW,202,3.0,6.0,48,-99.99,,,-99.99,762.000000,,2013-06-27 20:22:00,
2013-06-27 13:30:00,70.0,51.0,-100.00,SSW,205,2.0,8.0,52,-99.99,,,-99.99,760.000000,,2013-06-27 20:30:00,
2013-06-27 14:24:00,70.0,51.0,-100.00,SSW,205,2.0,8.0,52,-99.99,,,-99.99,760.000000,,2013-06-27 21:24:00,
2013-06-27 14:30:00,70.0,54.0,-100.00,SW,228,2.0,6.0,57,-99.99,,,-99.99,715.000000,,2013-06-27 21:30:00,
2013-06-27 15:22:00,70.0,54.0,-100.00,SW,228,2.0,6.0,57,-99.99,,,-99.99,715.000000,,2013-06-27 22:22:00,
2013-06-27 15:30:00,70.0,55.0,-100.00,WSW,238,3.0,7.0,58,-99.99,,,-99.99,47.000000,,2013-06-27 22:30:00,
2013-06-27 16:30:00,70.0,56.0,-100.00,West,271,3.0,8.0,61,-99.99,,,-99.99,26.000000,,2013-06-27 23:30:00,
2013-06-27 18:30:00,70.0,52.0,-100.00,NW,323,2.0,4.0,54,-99.99,,,-99.99,218.000000,,2013-06-28 01:30:00,
2013-06-27 19:30:00,66.0,54.0,-100.00,NW,318,2.0,4.0,65,-99.99,,,-99.99,13.000000,,2013-06-28 02:30:00,
2013-06-27 20:30:00,63.0,54.0,-100.00,NNW,340,1.0,2.0,72,-99.99,,,-99.99,4.000000,,2013-06-28 03:30:00,
2013-06-27 21:30:00,63.0,53.0,-100.00,East,93,4.0,5.0,68,-99.99,,,-99.99,0.000000,,2013-06-28 04:30:00,